Time;durP1;ratioP1;P1;durP2;ratioP2;P2;SDS_P1;SDS_P2;PMS_P1;PMS_P2;Temp;Humidity;BMP_temperature;BMP_pressure;BME280_temperature;BME280_humidity;BME280_pressure;Samples;Min_cycle;Max_cycle;Signal;HPM_P1;HPM_P2
2022/06/09 00:01:03;;;;;;;6.13;2.37;;;20.10;52.20;;;;;;5051785;28;20427;-75
2022/06/09 00:03:35;;;;;;;6.50;3.03;;;20.30;51.50;;;;;;5042400;28;20470;-75
2022/06/09 00:06:01;;;;;;;5.93;3.30;;;20.10;50.00;;;;;;5045724;28;20491;-74
2022/06/09 00:08:29;;;;;;;3.37;2.40;;;20.10;52.00;;;;;;5038904;28;20409;-75
2022/06/09 00:11:00;;;;;;;9.47;2.53;;;20.10;52.70;;;;;;5031377;28;20405;-75
2022/06/09 00:13:25;;;;;;;2.97;2.10;;;20.00;53.30;;;;;;5042922;28;20493;-75
2022/06/09 00:15:51;;;;;;;2.67;2.10;;;20.10;49.10;;;;;;5036572;28;20418;-74
2022/06/09 00:18:17;;;;;;;5.97;2.53;;;20.20;49.20;;;;;;5050330;28;20190;-74
2022/06/09 00:20:43;;;;;;;3.60;2.20;;;20.10;52.10;;;;;;5052000;28;20189;-76
2022/06/09 00:23:10;;;;;;;3.40;2.47;;;20.00;52.80;;;;;;5050700;28;20454;-74
2022/06/09 00:25:36;;;;;;;4.40;2.60;;;19.90;54.30;;;;;;5043098;28;20667;-74
2022/06/09 00:28:02;;;;;;;4.40;2.67;;;19.90;55.00;;;;;;5048976;28;20485;-74
2022/06/09 00:30:28;;;;;;;3.40;2.30;;;19.90;55.50;;;;;;5042162;28;20175;-74
2022/06/09 00:32:53;;;;;;;7.37;3.33;;;19.60;52.60;;;;;;5039310;28;20464;-74
2022/06/09 00:35:19;;;;;;;3.27;2.37;;;18.80;56.80;;;;;;5044034;28;20209;-74
2022/06/09 00:37:44;;;;;;;5.10;2.37;;;19.00;57.90;;;;;;5043266;28;20535;-75
2022/06/09 00:40:13;;;;;;;3.50;2.60;;;19.10;57.00;;;;;;5033278;28;20541;-74
2022/06/09 00:42:39;;;;;;;3.50;2.50;;;19.00;56.90;;;;;;5031750;28;20189;-74
2022/06/09 00:45:23;;;;;;;3.60;2.60;;;19.30;58.30;;;;;;5042587;28;20464;-74
2022/06/09 00:47:50;;;;;;;3.50;2.63;;;19.50;57.60;;;;;;5036148;28;20404;-74
2022/06/09 00:50:19;;;;;;;5.20;2.53;;;19.60;57.50;;;;;;5043762;28;20426;-74
2022/06/09 00:52:51;;;;;;;3.50;2.70;;;19.50;56.00;;;;;;5046241;28;20456;-74
2022/06/09 00:55:20;;;;;;;4.57;2.60;;;19.50;56.00;;;;;;5049467;28;20427;-77
2022/06/09 00:57:57;;;;;;;6.00;2.77;;;19.50;56.70;;;;;;5043963;28;20420;-74
2022/06/09 01:00:31;;;;;;;4.50;2.60;;;19.30;55.80;;;;;;5055608;28;20818;-77
2022/06/09 01:02:59;;;;;;;3.30;2.43;;;18.70;58.30;;;;;;5054967;28;20436;-74
2022/06/09 01:05:29;;;;;;;4.57;2.80;;;18.00;64.70;;;;;;5053913;28;20519;-77
2022/06/09 01:07:59;;;;;;;5.20;2.50;;;17.60;68.10;;;;;;5046945;28;20421;-76
2022/06/09 01:10:28;;;;;;;4.90;2.83;;;17.30;73.50;;;;;;5035614;28;20810;-74
2022/06/09 01:12:53;;;;;;;5.10;2.80;;;17.60;72.30;;;;;;5038081;28;20452;-77
2022/06/09 01:15:22;;;;;;;8.70;3.33;;;17.70;72.30;;;;;;5045544;28;20443;-73
2022/06/09 01:18:02;;;;;;;4.10;3.10;;;17.60;72.80;;;;;;5046958;28;20457;-74
2022/06/09 01:20:40;;;;;;;4.53;2.83;;;18.30;71.60;;;;;;5049456;28;20435;-74
2022/06/09 01:23:26;;;;;;;8.03;3.20;;;18.30;66.00;;;;;;5042820;28;20435;-76
2022/06/09 01:26:13;;;;;;;3.90;3.00;;;18.10;71.40;;;;;;5041744;28;20442;-75
2022/06/09 01:29:01;;;;;;;6.43;3.33;;;18.50;67.70;;;;;;5044418;28;20909;-73
2022/06/09 01:31:50;;;;;;;5.53;2.80;;;18.60;66.40;;;;;;5054154;28;20500;-73
2022/06/09 01:34:43;;;;;;;6.50;3.20;;;18.70;65.00;;;;;;5045905;28;20798;-76
2022/06/09 01:37:25;;;;;;;8.80;3.40;;;19.00;65.30;;;;;;5041172;28;20448;-74
2022/06/09 01:40:03;;;;;;;7.00;3.10;;;19.10;62.90;;;;;;5050807;28;20399;-74
2022/06/09 01:42:33;;;;;;;5.30;2.80;;;19.00;62.60;;;;;;5054839;28;20430;-74
2022/06/09 01:45:17;;;;;;;5.80;2.93;;;19.20;61.40;;;;;;5054724;28;20872;-74
2022/06/09 01:47:52;;;;;;;6.57;3.20;;;19.40;60.50;;;;;;5053173;28;20442;-73
2022/06/09 01:50:30;;;;;;;3.77;3.00;;;19.20;61.40;;;;;;5043539;28;20418;-74
2022/06/09 01:52:59;;;;;;;10.17;3.07;;;19.00;63.30;;;;;;5048018;28;20572;-73
2022/06/09 01:55:27;;;;;;;5.63;2.67;;;19.00;63.30;;;;;;5046606;28;20410;-74
2022/06/09 01:57:58;;;;;;;4.97;3.13;;;19.20;60.90;;;;;;5041469;28;20449;-73
2022/06/09 02:00:25;;;;;;;6.73;2.90;;;19.30;61.90;;;;;;5049842;28;20470;-74
2022/06/09 02:03:03;;;;;;;3.93;2.83;;;19.20;61.90;;;;;;5053758;28;20826;-74
2022/06/09 02:05:33;;;;;;;8.03;2.90;;;19.20;62.50;;;;;;5042740;28;20519;-77
2022/06/09 02:08:02;;;;;;;5.13;3.03;;;19.10;62.60;;;;;;5039490;28;20435;-74
2022/06/09 02:10:28;;;;;;;4.20;2.60;;;19.20;59.70;;;;;;5044944;28;20435;-73
2022/06/09 02:12:59;;;;;;;6.80;2.80;;;19.10;58.30;;;;;;5038112;28;20868;-74
2022/06/09 02:15:35;;;;;;;4.23;2.53;;;19.20;60.60;;;;;;5033171;28;20436;-73
2022/06/09 02:18:06;;;;;;;3.83;2.83;;;19.00;60.60;;;;;;5038532;28;20476;-74
2022/06/09 02:20:33;;;;;;;4.13;2.57;;;19.00;61.70;;;;;;5043885;28;20423;-73
2022/06/09 02:22:59;;;;;;;4.00;2.90;;;19.00;61.50;;;;;;5053693;28;20953;-75
2022/06/09 02:25:24;;;;;;;4.13;2.60;;;19.10;59.90;;;;;;5049396;28;20544;-73
2022/06/09 02:27:50;;;;;;;4.20;2.93;;;19.10;60.50;;;;;;5043309;28;20523;-73
2022/06/09 02:30:16;;;;;;;3.40;2.80;;;19.00;60.40;;;;;;5050626;28;20272;-74
2022/06/09 02:32:41;;;;;;;3.87;2.50;;;18.90;60.30;;;;;;5043162;28;20290;-74
2022/06/09 02:35:07;;;;;;;5.30;2.80;;;19.10;57.10;;;;;;5035910;28;20185;-73
2022/06/09 02:37:33;;;;;;;3.90;2.53;;;19.10;58.00;;;;;;5033653;28;20278;-76
2022/06/09 02:39:59;;;;;;;5.93;2.70;;;18.90;60.80;;;;;;5046613;28;21000;-73
2022/06/09 02:42:25;;;;;;;3.40;2.60;;;18.80;61.30;;;;;;5045512;28;20203;-73
2022/06/09 02:44:51;;;;;;;4.23;2.40;;;18.60;59.80;;;;;;5053802;28;20202;-74
2022/06/09 02:47:17;;;;;;;4.37;2.73;;;18.60;62.10;;;;;;5053980;28;20422;-73
2022/06/09 02:49:44;;;;;;;6.63;2.73;;;18.70;62.50;;;;;;5051440;28;20440;-74
2022/06/09 02:52:10;;;;;;;4.27;2.57;;;18.70;58.30;;;;;;5045931;28;20226;-75
2022/06/09 02:54:35;;;;;;;5.20;2.80;;;18.70;61.10;;;;;;5041736;28;20534;-74
2022/06/09 02:57:01;;;;;;;3.10;2.60;;;18.80;60.50;;;;;;5038689;28;20194;-74
2022/06/09 02:59:26;;;;;;;3.80;2.37;;;18.70;59.90;;;;;;5041680;28;20199;-73
2022/06/09 03:01:52;;;;;;;8.33;2.90;;;18.70;61.50;;;;;;5043565;28;20209;-74
2022/06/09 03:04:18;;;;;;;3.90;2.90;;;18.70;60.80;;;;;;5052585;28;20204;-76
2022/06/09 03:06:43;;;;;;;5.00;2.70;;;18.60;59.40;;;;;;5052978;28;20172;-74
2022/06/09 03:09:09;;;;;;;3.20;2.50;;;18.60;61.40;;;;;;5053510;28;20181;-73
2022/06/09 03:11:34;;;;;;;3.90;2.80;;;18.70;60.20;;;;;;5051803;28;20205;-74
2022/06/09 03:14:00;;;;;;;6.20;2.40;;;18.70;60.60;;;;;;5047953;28;20195;-74
2022/06/09 03:16:26;;;;;;;7.50;2.63;;;18.60;60.80;;;;;;5040852;28;20432;-73
2022/06/09 03:18:52;;;;;;;3.73;2.70;;;18.70;61.10;;;;;;5033399;28;20392;-74
2022/06/09 03:21:17;;;;;;;5.70;2.40;;;18.70;60.40;;;;;;5043312;28;20239;-74
2022/06/09 03:23:43;;;;;;;3.40;2.13;;;18.70;60.20;;;;;;5038216;28;20207;-74
2022/06/09 03:26:08;;;;;;;8.17;2.70;;;18.50;57.70;;;;;;5051664;28;20176;-76
2022/06/09 03:28:35;;;;;;;8.47;2.67;;;18.50;61.40;;;;;;5053093;28;20188;-74
2022/06/09 03:31:01;;;;;;;5.27;2.47;;;18.60;60.80;;;;;;5047376;28;20199;-76
2022/06/09 03:33:26;;;;;;;3.40;2.40;;;18.70;58.60;;;;;;5040576;28;20432;-74
2022/06/09 03:35:52;;;;;;;7.03;2.43;;;18.80;55.00;;;;;;5045009;28;20562;-73
2022/06/09 03:38:18;;;;;;;3.73;2.43;;;18.40;55.80;;;;;;5041051;28;20559;-73
2022/06/09 03:40:43;;;;;;;3.60;2.47;;;18.30;57.70;;;;;;5048051;28;20321;-80
2022/06/09 03:43:09;;;;;;;8.60;2.97;;;18.50;55.90;;;;;;5043478;28;20228;-74
2022/06/09 03:45:36;;;;;;;5.20;2.60;;;18.50;57.60;;;;;;5042703;28;20667;-73
2022/06/09 03:48:03;;;;;;;3.90;2.77;;;18.60;55.90;;;;;;5043711;28;20459;-73
2022/06/09 03:50:30;;;;;;;6.90;2.60;;;18.70;57.90;;;;;;5045395;28;20587;-74
2022/06/09 03:52:56;;;;;;;5.03;2.83;;;18.60;58.80;;;;;;5036751;28;20471;-73
2022/06/09 03:55:22;;;;;;;3.97;2.80;;;18.60;58.80;;;;;;5039390;28;20431;-80
2022/06/09 03:57:48;;;;;;;3.60;2.70;;;18.60;59.60;;;;;;5039509;28;20195;-76
2022/06/09 04:00:17;;;;;;;4.10;3.03;;;18.50;56.50;;;;;;5041339;28;20180;-77
2022/06/09 04:02:42;;;;;;;5.90;2.80;;;18.60;57.30;;;;;;5042921;28;20197;-74
2022/06/09 04:05:08;;;;;;;5.17;2.83;;;18.70;55.20;;;;;;5046743;28;20516;-74
2022/06/09 04:07:34;;;;;;;8.60;3.23;;;18.60;56.80;;;;;;5041930;28;20219;-74
2022/06/09 04:10:00;;;;;;;6.60;3.10;;;18.50;60.20;;;;;;5042786;28;20475;-77
2022/06/09 04:12:25;;;;;;;9.73;3.00;;;18.70;59.90;;;;;;5041151;28;20227;-73
2022/06/09 04:14:51;;;;;;;9.00;3.37;;;18.60;55.90;;;;;;5045210;28;20539;-74
2022/06/09 04:17:17;;;;;;;4.80;3.13;;;18.60;56.00;;;;;;5040117;28;20677;-79
2022/06/09 04:19:42;;;;;;;5.23;3.00;;;18.60;58.50;;;;;;5042784;28;20431;-74
2022/06/09 04:22:08;;;;;;;8.53;3.03;;;18.60;57.70;;;;;;5046328;28;20214;-74
2022/06/09 04:24:34;;;;;;;7.53;2.70;;;18.10;57.60;;;;;;5041760;28;20211;-74
2022/06/09 04:26:59;;;;;;;7.37;3.10;;;18.00;60.70;;;;;;5042503;28;20697;-74
2022/06/09 04:29:25;;;;;;;12.53;3.60;;;18.10;60.60;;;;;;5042640;28;20178;-74
2022/06/09 04:31:51;;;;;;;4.87;3.20;;;18.40;60.70;;;;;;5048218;28;20213;-74
2022/06/09 04:34:16;;;;;;;5.27;2.97;;;18.50;58.90;;;;;;5043372;28;20239;-77
2022/06/09 04:36:42;;;;;;;11.13;5.67;;;18.10;59.70;;;;;;5038919;28;20186;-74
2022/06/09 04:39:08;;;;;;;8.80;3.43;;;18.10;60.10;;;;;;5041976;28;20191;-73
2022/06/09 04:41:35;;;;;;;7.37;3.30;;;18.10;62.90;;;;;;5041879;28;20203;-74
2022/06/09 04:44:00;;;;;;;5.60;2.90;;;18.50;62.40;;;;;;5042429;28;20527;-75
2022/06/09 04:46:27;;;;;;;4.70;3.40;;;18.60;56.60;;;;;;5046528;28;20431;-81
2022/06/09 04:48:53;;;;;;;6.90;3.10;;;18.70;57.20;;;;;;5046246;28;20186;-77
2022/06/09 04:51:21;;;;;;;4.47;2.97;;;17.80;61.30;;;;;;5046229;28;21678;-76
2022/06/09 04:53:48;;;;;;;9.83;3.40;;;18.00;59.10;;;;;;5070838;22;20457;-73
2022/06/09 04:56:17;;;;;;;5.80;3.07;;;17.80;61.50;;;;;;5063793;28;20881;-73
2022/06/09 04:58:43;;;;;;;7.47;3.43;;;18.20;59.10;;;;;;5054907;28;20417;-73
2022/06/09 05:01:27;;;;;;;5.40;3.10;;;18.40;56.90;;;;;;5037437;28;20582;-73
2022/06/09 05:03:53;;;;;;;5.47;3.10;;;17.60;60.10;;;;;;5044576;28;20219;-72
2022/06/09 05:06:21;;;;;;;4.47;3.00;;;18.00;60.60;;;;;;5058591;28;20509;-72
2022/06/09 05:08:48;;;;;;;4.20;2.73;;;17.60;61.70;;;;;;5054217;28;20496;-73
2022/06/09 05:11:13;;;;;;;7.80;2.80;;;17.80;62.10;;;;;;5054783;28;20455;-71
2022/06/09 05:13:39;;;;;;;4.97;2.93;;;17.70;59.90;;;;;;5044241;28;20489;-72
2022/06/09 05:16:06;;;;;;;6.47;3.70;;;17.40;60.60;;;;;;5054324;28;20494;-74
2022/06/09 05:18:33;;;;;;;8.27;3.50;;;17.40;64.50;;;;;;5057969;28;20441;-74
2022/06/09 05:20:59;;;;;;;6.10;3.20;;;17.80;60.50;;;;;;5057963;28;20963;-74
2022/06/09 05:23:26;;;;;;;11.33;3.30;;;17.90;57.70;;;;;;5051212;28;20572;-73
2022/06/09 05:25:54;;;;;;;5.47;3.13;;;17.30;63.30;;;;;;5052432;28;20434;-74
2022/06/09 05:28:21;;;;;;;5.70;3.20;;;17.80;60.30;;;;;;5053481;28;20871;-74
2022/06/09 05:30:47;;;;;;;9.20;3.60;;;17.40;63.10;;;;;;5031911;28;20871;-74
2022/06/09 05:33:13;;;;;;;7.27;3.40;;;17.70;58.60;;;;;;5048217;28;20513;-75
2022/06/09 05:35:39;;;;;;;12.77;3.17;;;18.30;57.50;;;;;;5044429;28;20200;-74
2022/06/09 05:46:19;;;;;;;5.67;3.30;;;18.30;58.10;;;;;;5052993;28;20431;-74
2022/06/09 05:48:46;;;;;;;8.83;3.40;;;18.70;56.10;;;;;;5031430;28;20509;-74
2022/06/09 05:51:13;;;;;;;8.53;2.97;;;18.50;54.90;;;;;;5049612;28;20181;-73
2022/06/09 05:53:40;;;;;;;9.20;3.13;;;17.60;59.10;;;;;;5058605;28;20451;-74
2022/06/09 05:56:07;;;;;;;8.17;3.60;;;18.00;59.60;;;;;;5045803;28;20990;-73
2022/06/09 05:58:35;;;;;;;6.20;2.80;;;17.90;59.50;;;;;;5060860;28;20450;-73
2022/06/09 06:01:03;;;;;;;6.40;3.20;;;17.70;60.30;;;;;;5057471;28;20475;-74
2022/06/09 06:03:28;;;;;;;19.80;3.20;;;17.60;67.30;;;;;;5054363;28;20469;-73
2022/06/09 06:08:39;;;;;;;5.97;3.10;;;18.60;52.60;;;;;;5056709;28;20184;-74
2022/06/09 06:11:05;;;;;;;7.43;3.13;;;18.40;55.10;;;;;;5060720;28;20428;-73
2022/06/09 06:13:31;;;;;;;5.00;2.90;;;18.10;57.90;;;;;;5034213;28;20439;-74
2022/06/09 06:15:56;;;;;;;8.30;3.30;;;17.80;58.80;;;;;;5056395;28;20419;-74
2022/06/09 06:18:23;;;;;;;7.67;2.90;;;17.60;59.50;;;;;;5052946;28;20211;-74
2022/06/09 06:20:49;;;;;;;5.70;3.20;;;18.10;59.80;;;;;;5037793;28;20175;-74
2022/06/09 06:23:15;;;;;;;10.00;3.17;;;18.50;59.00;;;;;;5052106;28;20434;-74
2022/06/09 06:25:40;;;;;;;4.57;2.80;;;18.70;52.80;;;;;;5068503;28;20459;-74
2022/06/09 06:28:06;;;;;;;6.27;3.23;;;18.40;54.80;;;;;;5062049;28;20191;-74
2022/06/09 06:30:32;;;;;;;6.90;3.20;;;18.40;56.30;;;;;;5053744;28;20771;-74
2022/06/09 06:32:58;;;;;;;7.23;2.93;;;18.60;51.40;;;;;;5057759;28;20191;-74
2022/06/09 06:35:23;;;;;;;9.90;2.83;;;18.00;55.60;;;;;;5053743;28;20446;-72
2022/06/09 06:37:49;;;;;;;10.57;3.10;;;18.40;51.10;;;;;;5051939;28;20188;-68
2022/06/09 06:40:16;;;;;;;7.70;3.57;;;18.50;51.60;;;;;;5059944;28;20181;-71
2022/06/09 06:42:41;;;;;;;5.10;2.73;;;18.00;55.30;;;;;;5065908;28;20245;-70
2022/06/09 06:45:09;;;;;;;7.93;3.00;;;18.10;52.40;;;;;;5049257;28;20460;-69
2022/06/09 06:47:35;;;;;;;6.17;3.10;;;18.20;53.00;;;;;;5055552;28;20203;-70
2022/06/09 06:50:01;;;;;;;6.57;2.93;;;18.20;56.20;;;;;;5055880;28;20833;-70
2022/06/09 06:52:27;;;;;;;9.30;3.57;;;17.90;53.30;;;;;;5056456;28;20187;-70
2022/06/09 06:54:53;;;;;;;7.03;2.90;;;17.50;58.20;;;;;;5052802;28;20216;-70
2022/06/09 06:57:19;;;;;;;7.17;3.60;;;17.80;56.60;;;;;;5060247;28;21309;-70
2022/06/09 06:59:44;;;;;;;10.63;3.17;;;17.30;53.30;;;;;;5062181;28;20227;-69
2022/06/09 07:02:11;;;;;;;5.77;3.43;;;17.00;57.20;;;;;;5053598;28;20184;-69
2022/06/09 07:04:37;;;;;;;10.03;3.60;;;17.50;57.70;;;;;;5055898;28;20228;-69
2022/06/09 07:07:03;;;;;;;10.27;4.07;;;17.70;58.40;;;;;;5045895;28;20433;-70
2022/06/09 07:09:29;;;;;;;6.43;3.10;;;18.30;53.70;;;;;;5067692;28;20571;-70
2022/06/09 07:11:55;;;;;;;6.53;3.20;;;18.00;52.60;;;;;;5060871;28;20442;-70
2022/06/09 07:14:20;;;;;;;8.17;3.40;;;17.70;52.80;;;;;;5050262;28;20233;-70
2022/06/09 07:16:46;;;;;;;8.87;3.33;;;17.40;54.30;;;;;;5056813;28;20190;-69
2022/06/09 07:19:14;;;;;;;10.07;3.20;;;18.00;57.40;;;;;;5050680;28;20190;-69
2022/06/09 07:21:39;;;;;;;9.20;3.07;;;18.30;56.80;;;;;;5060343;28;20312;-70
2022/06/09 07:24:05;;;;;;;6.50;3.30;;;18.90;49.50;;;;;;5061810;28;20561;-69
2022/06/09 07:26:31;;;;;;;9.37;3.27;;;18.90;46.90;;;;;;5059658;28;20229;-69
2022/06/09 07:28:56;;;;;;;8.47;3.70;;;18.40;47.70;;;;;;5045156;28;20660;-69
2022/06/09 07:31:22;;;;;;;7.40;3.00;;;17.70;52.70;;;;;;5059184;28;20173;-70
2022/06/09 07:33:48;;;;;;;8.73;3.10;;;18.40;52.00;;;;;;5053739;28;20229;-70
2022/06/09 07:36:19;;;;;;;14.83;3.27;;;18.20;51.80;;;;;;5062191;28;20595;-70
2022/06/09 07:38:44;;;;;;;9.07;3.47;;;18.60;49.90;;;;;;5059322;28;20734;-69
2022/06/09 07:41:10;;;;;;;7.77;3.03;;;18.80;49.50;;;;;;5061523;28;20460;-69
2022/06/09 07:43:36;;;;;;;12.53;3.37;;;18.00;50.40;;;;;;5063551;28;20295;-69
2022/06/09 07:46:02;;;;;;;6.13;2.90;;;17.30;55.10;;;;;;5059975;28;20193;-69
2022/06/09 07:48:28;;;;;;;11.23;3.47;;;17.10;52.90;;;;;;5058881;28;20182;-69
2022/06/09 07:50:55;;;;;;;10.60;3.10;;;16.90;56.10;;;;;;5040242;28;20436;-69
2022/06/09 07:53:21;;;;;;;7.00;3.20;;;17.50;51.30;;;;;;5055684;28;20443;-69
2022/06/09 07:55:48;;;;;;;12.07;3.37;;;17.30;52.70;;;;;;5050236;28;20882;-69
2022/06/09 07:58:15;;;;;;;11.00;3.20;;;17.10;53.40;;;;;;5062225;28;20466;-69
2022/06/09 08:00:41;;;;;;;14.90;3.73;;;17.10;51.40;;;;;;5048670;28;20435;-69
2022/06/09 08:03:07;;;;;;;5.40;2.93;;;17.40;51.70;;;;;;5054908;28;20430;-69
2022/06/09 08:05:33;;;;;;;7.90;3.60;;;17.70;48.60;;;;;;5048743;28;20470;-70
2022/06/09 08:07:59;;;;;;;7.20;3.17;;;17.60;50.00;;;;;;5051760;28;20475;-69
2022/06/09 08:10:28;;;;;;;8.77;2.83;;;17.70;47.70;;;;;;5052443;28;20882;-70
2022/06/09 08:12:57;;;;;;;13.50;4.47;;;18.50;49.30;;;;;;5053876;28;20505;-69
2022/06/09 08:15:24;;;;;;;4.80;2.77;;;18.10;45.00;;;;;;5043609;28;20493;-69
2022/06/09 08:17:51;;;;;;;16.30;4.03;;;18.00;45.90;;;;;;5047330;28;20495;-69
2022/06/09 08:20:17;;;;;;;10.50;3.00;;;18.10;43.80;;;;;;5058269;28;20506;-69
2022/06/09 08:22:43;;;;;;;14.47;3.77;;;17.70;45.40;;;;;;5043854;28;20436;-69
2022/06/09 08:25:15;;;;;;;10.50;3.37;;;17.80;46.80;;;;;;5056721;28;20212;-69
2022/06/09 08:27:41;;;;;;;13.17;3.67;;;18.50;44.30;;;;;;5049010;28;20509;-69
2022/06/09 08:30:10;;;;;;;8.00;2.93;;;18.60;42.90;;;;;;5047005;28;20429;-69
2022/06/09 08:32:36;;;;;;;5.40;2.60;;;18.30;43.10;;;;;;5051236;28;20431;-70
2022/06/09 08:35:03;;;;;;;10.67;2.93;;;18.10;43.30;;;;;;5058717;28;20460;-69
2022/06/09 08:37:29;;;;;;;10.90;3.10;;;18.40;43.40;;;;;;5047785;28;20974;-69
2022/06/09 08:39:55;;;;;;;8.27;2.80;;;18.10;44.50;;;;;;5057968;28;20532;-69
2022/06/09 08:42:29;;;;;;;10.63;2.63;;;18.40;42.90;;;;;;5049488;28;20185;-70
2022/06/09 08:45:03;;;;;;;12.30;2.80;;;18.40;41.80;;;;;;5045979;28;20571;-70
2022/06/09 08:47:47;;;;;;;8.13;3.67;;;18.10;39.90;;;;;;5044211;28;20462;-68
2022/06/09 08:50:21;;;;;;;10.23;2.70;;;17.80;41.30;;;;;;5057319;28;20432;-68
2022/06/09 08:52:57;;;;;;;9.33;2.50;;;17.70;40.90;;;;;;5056307;28;20448;-69
2022/06/09 08:55:37;;;;;;;5.13;2.60;;;18.20;40.00;;;;;;5052093;28;20476;-69
2022/06/09 08:58:19;;;;;;;7.80;2.50;;;18.90;38.30;;;;;;5055825;28;20456;-69
2022/06/09 09:01:03;;;;;;;6.50;3.10;;;18.00;39.80;;;;;;5048081;28;20786;-69
2022/06/09 09:03:35;;;;;;;7.90;2.30;;;18.30;41.30;;;;;;5046912;28;20924;-69
2022/06/09 09:06:15;;;;;;;7.90;2.70;;;18.70;38.40;;;;;;5048456;28;20467;-69
2022/06/09 09:08:40;;;;;;;5.83;2.60;;;18.40;38.20;;;;;;5041202;28;20450;-69
2022/06/09 09:11:19;;;;;;;7.70;2.53;;;18.00;38.60;;;;;;5045382;28;20844;-69
2022/06/09 09:13:59;;;;;;;10.43;2.80;;;17.90;39.70;;;;;;5049926;28;20218;-69
2022/06/09 09:16:46;;;;;;;7.20;2.60;;;18.20;39.20;;;;;;5045307;28;20595;-69
2022/06/09 09:19:35;;;;;;;6.47;2.57;;;19.20;36.30;;;;;;5063180;28;20420;-69
2022/06/09 09:22:18;;;;;;;14.13;2.80;;;19.30;37.30;;;;;;5052311;28;20441;-70
2022/06/09 09:25:21;;;;;;;5.77;2.57;;;19.00;37.60;;;;;;5051202;28;20604;-70
2022/06/09 09:27:57;;;;;;;7.70;2.50;;;18.50;36.90;;;;;;5004758;28;20450;-69
2022/06/09 09:30:30;;;;;;;5.87;2.80;;;18.50;36.10;;;;;;5056310;28;20437;-69
2022/06/09 09:32:57;;;;;;;18.73;2.87;;;18.40;35.50;;;;;;5047882;28;20892;-69
2022/06/09 09:35:40;;;;;;;5.40;2.40;;;18.10;35.80;;;;;;5053889;28;20459;-69
2022/06/09 09:38:07;;;;;;;9.00;2.50;;;18.30;36.10;;;;;;5056243;28;20955;-69
2022/06/09 09:40:39;;;;;;;5.93;2.77;;;18.70;35.10;;;;;;5040577;28;20469;-69
2022/06/09 09:43:20;;;;;;;8.73;2.73;;;19.30;34.30;;;;;;5056109;28;20571;-69
2022/06/09 09:45:52;;;;;;;8.57;2.43;;;19.20;33.40;;;;;;5059167;28;20472;-70
2022/06/09 09:48:18;;;;;;;6.63;2.37;;;19.40;33.70;;;;;;5055498;28;20443;-70
2022/06/09 09:50:54;;;;;;;6.07;2.17;;;19.20;35.10;;;;;;5058030;28;20902;-68
2022/06/09 09:53:31;;;;;;;3.90;2.10;;;19.00;34.20;;;;;;5060188;28;20184;-70
2022/06/09 09:56:02;;;;;;;6.07;2.43;;;19.40;33.40;;;;;;5050451;28;20440;-71
2022/06/09 09:58:36;;;;;;;4.60;2.50;;;20.00;32.10;;;;;;5063314;28;20429;-70
2022/06/09 10:01:16;;;;;;;6.37;2.30;;;20.10;30.00;;;;;;5056490;28;20454;-69
2022/06/09 10:09:30;;;;;;;4.90;2.10;;;19.70;29.40;;;;;;5050719;28;20455;-70
2022/06/09 10:12:02;;;;;;;7.60;2.27;;;19.10;30.50;;;;;;5061377;28;20535;-70
2022/06/09 10:14:32;;;;;;;9.47;2.20;;;19.40;31.20;;;;;;5058351;28;20456;-70
2022/06/09 10:16:58;;;;;;;6.83;2.10;;;19.60;31.90;;;;;;5053450;28;20442;-70
2022/06/09 10:19:27;;;;;;;6.23;2.30;;;20.00;32.30;;;;;;5060517;28;20437;-70
2022/06/09 10:21:57;;;;;;;9.43;2.50;;;20.20;30.50;;;;;;5051732;28;20443;-69
2022/06/09 10:24:49;;;;;;;3.90;2.03;;;20.20;30.80;;;;;;5045600;28;20566;-70
2022/06/09 10:27:20;;;;;;;6.30;2.33;;;20.50;29.00;;;;;;5016536;28;20464;-69
2022/06/09 10:29:59;;;;;;;5.07;2.13;;;20.20;27.20;;;;;;5049739;28;20429;-70
2022/06/09 10:32:33;;;;;;;6.37;2.03;;;20.10;26.10;;;;;;5050277;28;20446;-68
2022/06/09 10:35:14;;;;;;;5.40;1.93;;;20.30;25.90;;;;;;5054806;28;20460;-68
2022/06/09 10:37:48;;;;;;;5.80;2.47;;;20.40;28.20;;;;;;5048975;28;20443;-69
2022/06/09 10:40:24;;;;;;;8.17;2.63;;;20.50;29.30;;;;;;5062125;28;20942;-68
2022/06/09 10:43:00;;;;;;;8.70;2.20;;;20.10;29.40;;;;;;5064207;28;20442;-69
2022/06/09 10:45:52;;;;;;;6.03;2.67;;;19.30;28.00;;;;;;5042552;28;20472;-68
2022/06/09 10:55:14;;;;;;;6.23;2.20;;;20.00;28.70;;;;;;5054112;28;20423;-71
2022/06/09 10:55:14;;;;;;;3.70;2.13;;;20.30;27.70;;;;;;5049643;28;20484;-70
2022/06/09 10:58:02;;;;;;;4.20;2.03;;;20.60;26.00;;;;;;5067342;23;20496;-73
2022/06/09 11:00:35;;;;;;;3.40;2.10;;;20.50;27.30;;;;;;5046047;28;20422;-73
2022/06/09 11:03:09;;;;;;;6.53;2.20;;;20.60;27.00;;;;;;5059327;28;20771;-73
2022/06/09 11:05:50;;;;;;;4.50;2.00;;;20.60;27.60;;;;;;5046755;28;20508;-73
2022/06/09 11:08:29;;;;;;;7.27;2.37;;;20.10;27.80;;;;;;5047865;28;20477;-73
2022/06/09 11:11:21;;;;;;;7.90;2.87;;;19.80;27.70;;;;;;5031377;28;20921;-73
2022/06/09 11:13:58;;;;;;;12.30;2.53;;;19.90;27.80;;;;;;5020476;28;20525;-73
2022/06/09 11:16:38;;;;;;;4.10;2.30;;;20.00;27.80;;;;;;5029935;28;20924;-73
2022/06/09 11:19:04;;;;;;;4.60;2.10;;;20.50;27.70;;;;;;5045057;28;21173;-73
2022/06/09 11:21:50;;;;;;;13.63;2.37;;;21.40;26.50;;;;;;5033442;28;20512;-73
2022/06/09 11:24:31;;;;;;;5.10;2.33;;;21.80;27.30;;;;;;5052529;28;20279;-73
2022/06/09 11:27:29;;;;;;;5.90;2.40;;;21.80;23.90;;;;;;5052210;28;20425;-73
2022/06/09 11:30:17;;;;;;;4.57;2.37;;;21.60;25.70;;;;;;5051853;28;20448;-73
2022/06/09 11:33:09;;;;;;;13.10;3.10;;;21.60;27.10;;;;;;5052340;28;20409;-73
2022/06/09 11:35:38;;;;;;;11.40;2.83;;;21.70;27.20;;;;;;5052345;28;20402;-72
2022/06/09 11:38:50;;;;;;;4.43;2.60;;;21.30;29.20;;;;;;5051695;28;20429;-73
2022/06/09 11:41:37;;;;;;;8.77;2.37;;;21.40;28.40;;;;;;5031940;28;20430;-70
2022/06/09 11:44:32;;;;;;;6.63;2.47;;;22.50;25.60;;;;;;5031409;28;20515;-73
2022/06/09 11:47:05;;;;;;;4.67;2.20;;;22.70;25.00;;;;;;5033500;28;20439;-73
2022/06/09 11:49:42;;;;;;;8.07;2.53;;;23.20;25.60;;;;;;5041929;28;20418;-73
2022/06/09 11:52:12;;;;;;;7.37;2.30;;;23.30;24.80;;;;;;5054074;28;20421;-73
2022/06/09 11:54:51;;;;;;;11.87;3.77;;;23.10;25.50;;;;;;5052510;28;20921;-74
2022/06/09 11:57:19;;;;;;;5.83;2.50;;;22.60;25.70;;;;;;5051421;28;20499;-73
2022/06/09 12:00:19;;;;;;;5.23;2.30;;;22.50;27.70;;;;;;5051255;28;20917;-72
2022/06/09 12:03:14;;;;;;;4.60;2.30;;;22.40;27.70;;;;;;5026313;28;20445;-73
2022/06/09 12:06:05;;;;;;;5.20;2.60;;;22.50;27.50;;;;;;5052833;28;20449;-72
2022/06/09 12:08:54;;;;;;;8.03;2.33;;;23.10;26.20;;;;;;5051763;28;20428;-73
2022/06/09 12:11:22;;;;;;;6.27;2.77;;;23.80;25.50;;;;;;5051071;28;20429;-73
2022/06/09 12:14:03;;;;;;;10.80;2.50;;;23.10;25.50;;;;;;5041804;28;20910;-72
2022/06/09 12:16:37;;;;;;;5.00;2.67;;;22.90;26.00;;;;;;5031711;28;20461;-72
2022/06/09 12:19:20;;;;;;;9.50;2.90;;;22.70;26.00;;;;;;5031917;28;20888;-72
2022/06/09 12:21:58;;;;;;;6.33;2.57;;;21.60;27.70;;;;;;5040954;28;20444;-72
2022/06/09 12:24:29;;;;;;;6.40;2.50;;;21.10;28.50;;;;;;5051239;28;20449;-72
2022/06/09 12:27:03;;;;;;;6.60;2.40;;;20.60;29.80;;;;;;5051381;28;20429;-72
2022/06/09 12:29:43;;;;;;;5.43;2.70;;;21.40;28.50;;;;;;5052466;28;20389;-72
2022/06/09 12:32:09;;;;;;;8.30;2.80;;;20.60;30.20;;;;;;5050353;28;20423;-72
2022/06/09 12:34:49;;;;;;;5.47;2.70;;;20.80;30.60;;;;;;5051504;28;20414;-72
2022/06/09 12:37:33;;;;;;;6.03;2.70;;;20.90;29.70;;;;;;5051212;28;20197;-73
2022/06/09 12:40:20;;;;;;;4.07;2.63;;;21.30;29.60;;;;;;5051315;28;20902;-73
2022/06/09 12:43:01;;;;;;;9.70;3.07;;;21.40;29.50;;;;;;5050764;28;20998;-72
2022/06/09 12:45:36;;;;;;;8.10;3.10;;;21.40;29.60;;;;;;5051185;28;20491;-72
2022/06/09 12:48:15;;;;;;;6.53;2.97;;;20.90;30.20;;;;;;5051073;28;20426;-72
2022/06/09 12:50:48;;;;;;;9.30;3.30;;;21.10;29.90;;;;;;5051125;28;20412;-72
2022/06/09 12:53:35;;;;;;;6.10;2.70;;;20.70;31.00;;;;;;5050376;28;20440;-72
2022/06/09 12:56:18;;;;;;;6.00;2.70;;;21.20;29.50;;;;;;5035080;28;20888;-72
2022/06/09 12:58:48;;;;;;;7.83;3.10;;;21.00;30.80;;;;;;5030876;28;20443;-72
2022/06/09 13:01:17;;;;;;;10.33;2.83;;;20.90;31.40;;;;;;5030899;28;20490;-73
2022/06/09 13:03:49;;;;;;;13.70;2.90;;;21.60;28.90;;;;;;5031618;28;20440;-72
2022/06/09 13:06:33;;;;;;;7.77;2.60;;;22.00;28.40;;;;;;5031185;28;20412;-73
2022/06/09 13:09:31;;;;;;;9.70;3.40;;;21.30;30.20;;;;;;5031132;28;20401;-72
2022/06/09 13:15:06;;;;;;;17.00;3.03;;;19.90;35.90;;;;;;5031223;28;20528;-74
2022/06/09 13:17:35;;;;;;;7.23;2.90;;;19.30;38.00;;;;;;5030908;28;20517;-72
2022/06/09 13:20:10;;;;;;;11.60;3.30;;;19.10;41.20;;;;;;5032484;28;20420;-72
2022/06/09 13:22:36;;;;;;;11.83;3.00;;;19.00;44.90;;;;;;5032047;28;20422;-72
2022/06/09 13:25:04;;;;;;;10.33;3.47;;;18.40;47.60;;;;;;5032576;28;20661;-72
2022/06/09 13:27:32;;;;;;;9.57;3.47;;;18.30;50.00;;;;;;5042793;28;20453;-72
2022/06/09 13:30:00;;;;;;;12.40;3.00;;;18.20;49.20;;;;;;5039364;28;20524;-72